KDTL/DTL METAR and TAF weather

Enter ICAO airport designator
Station Type Date Time Source
KDTL METAR 2019/10/21 22:16 UTC NOAA

KDTL 212216Z AUTO 36013G25KT 3SM -RA SCT006 BKN013 OVC018 07/06 A2944 RMK AO2 P0003


Station Type Date Time Source
KDTL Decoded METAR 2019/10/21 22:16 UTC NOAA

Detroit Lakes, Detroit Lakes Airport-Wething Field, MN, United States (KDTL) 46-50N 095-53W
Oct 21, 2019 - 06:16 PM EDT / 2019.10.21 2216 UTC
Wind: from the N (360 degrees) at 15 MPH (13 KT) gusting to 29 MPH (25 KT):0
Visibility: 3 mile(s):0
Sky conditions: overcast
Weather: light rain
Precipitation last hour: 0.03 inches
Temperature: 44 F (7 C)
Dew Point: 42 F (6 C)
Relative Humidity: 93%
Pressure (altimeter): 29.44 in. Hg (996 hPa)
ob: KDTL 212216Z AUTO 36013G25KT 3SM -RA SCT006 BKN013 OVC018 07/06 A2944 RMK AO2 P0003
cycle: 22

Station Type Date Time Source
KDTL TAF UTC NOAA

Error!

Example: see airport list